createdAt,value
2023-05-14T00:00:14.223Z,98792.50
2023-05-14T00:05:41.249Z,98795.27
2023-05-14T00:10:48.502Z,98791.77
2023-05-14T00:15:56.029Z,98787.69
2023-05-14T00:21:03.548Z,98783.00
2023-05-14T00:26:10.747Z,98780.71
2023-05-14T00:31:18.048Z,98780.56
2023-05-14T00:36:25.238Z,98782.55
2023-05-14T00:41:32.567Z,98784.17
2023-05-14T00:46:39.844Z,98778.38
2023-05-14T00:51:47.409Z,98781.86
2023-05-14T00:56:54.796Z,98780.30
2023-05-14T01:02:02.017Z,98777.37
2023-05-14T01:07:14.793Z,98779.81
2023-05-14T01:12:28.420Z,98778.23
2023-05-14T01:17:37.863Z,98776.52
2023-05-14T01:22:45.045Z,98775.98
2023-05-14T01:27:56.866Z,98769.89
2023-05-14T01:33:05.208Z,98769.48
2023-05-14T01:38:13.413Z,98774.27
2023-05-14T01:43:21.256Z,98780.42
2023-05-14T01:48:30.289Z,98776.23
2023-05-14T01:53:37.504Z,98774.19
2023-05-14T01:58:44.802Z,98776.63
2023-05-14T02:03:51.867Z,98778.08
2023-05-14T02:08:59.232Z,98778.78
2023-05-14T02:14:06.520Z,98776.45
2023-05-14T02:19:13.759Z,98772.39
2023-05-14T02:24:21.103Z,98773.56
2023-05-14T02:29:28.124Z,98772.89
2023-05-14T02:34:35.322Z,98769.02
2023-05-14T02:39:42.527Z,98761.75
2023-05-14T02:44:49.974Z,98762.73
2023-05-14T02:49:57.420Z,98762.48
2023-05-14T02:55:04.878Z,98760.75
2023-05-14T03:00:13.448Z,98756.27
2023-05-14T03:05:21.014Z,98745.63
2023-05-14T03:10:28.116Z,98743.27
2023-05-14T03:15:35.376Z,98736.17
2023-05-14T03:20:42.658Z,98729.63
2023-05-14T03:25:49.802Z,98721.38
2023-05-14T03:30:57.511Z,98722.02
2023-05-14T03:36:05.288Z,98722.58
2023-05-14T03:41:12.587Z,98720.98
2023-05-14T03:46:20.007Z,98727.34
2023-05-14T03:51:26.886Z,98725.42
2023-05-14T03:56:34.264Z,98724.00
2023-05-14T04:01:41.674Z,98717.12
2023-05-14T04:06:48.818Z,98712.06
2023-05-14T04:11:55.846Z,98711.14
2023-05-14T04:17:02.777Z,98712.98
2023-05-14T04:22:10.133Z,98715.81
2023-05-14T04:27:22.190Z,98716.39
2023-05-14T04:32:30.651Z,98714.27
2023-05-14T04:37:37.853Z,98713.16
2023-05-14T04:42:45.170Z,98710.20
2023-05-14T04:47:52.542Z,98707.64
2023-05-14T04:52:59.742Z,98706.23
2023-05-14T04:58:07.014Z,98715.05
2023-05-14T05:03:14.052Z,98714.58
2023-05-14T05:08:21.539Z,98711.07
2023-05-14T05:13:28.846Z,98715.34
2023-05-14T05:18:36.659Z,98710.36
2023-05-14T05:23:43.933Z,98705.97
2023-05-14T05:28:51.237Z,98702.48
2023-05-14T05:33:58.736Z,98692.58
2023-05-14T05:39:06.653Z,98693.70
2023-05-14T05:44:13.922Z,98691.32
2023-05-14T05:49:21.255Z,98691.46
2023-05-14T05:54:28.787Z,98692.79
2023-05-14T05:59:36.622Z,98691.44
2023-05-14T06:04:43.805Z,98688.54
2023-05-14T06:09:51.261Z,98692.42
2023-05-14T06:14:58.968Z,98700.06
2023-05-14T06:20:08.285Z,98698.10
2023-05-14T06:25:15.603Z,98685.82
2023-05-14T06:30:23.330Z,98676.36
2023-05-14T06:35:30.935Z,98675.16
2023-05-14T06:40:38.624Z,98674.39
2023-05-14T06:45:46.523Z,98670.24
2023-05-14T06:50:54.417Z,98664.02
2023-05-14T06:56:01.518Z,98662.20
2023-05-14T07:01:08.601Z,98662.67
2023-05-14T07:06:15.770Z,98665.74
2023-05-14T07:11:23.524Z,98664.75
2023-05-14T07:16:31.290Z,98655.71
2023-05-14T07:21:38.743Z,98651.61
2023-05-14T07:26:46.093Z,98657.74
2023-05-14T07:31:53.752Z,98666.90
2023-05-14T07:37:00.911Z,98664.89
2023-05-14T07:42:08.615Z,98672.99
2023-05-14T07:47:15.929Z,98674.10
2023-05-14T07:52:22.950Z,98677.30
2023-05-14T07:57:30.340Z,98674.09
2023-05-14T08:02:38.063Z,98661.75
2023-05-14T08:07:45.682Z,98654.44
2023-05-14T08:12:53.053Z,98650.40
2023-05-14T08:18:04.026Z,98645.76
2023-05-14T08:23:11.576Z,98632.36
2023-05-14T08:28:18.937Z,98632.88
2023-05-14T08:33:26.319Z,98624.67
2023-05-14T08:38:33.377Z,98616.15
2023-05-14T08:43:46.918Z,98610.77
2023-05-14T08:48:58.447Z,98610.99
2023-05-14T08:54:07.594Z,98605.23
2023-05-14T08:59:14.714Z,98603.05
2023-05-14T09:04:22.685Z,98595.59
2023-05-14T09:09:30.210Z,98597.73
2023-05-14T09:14:37.543Z,98593.52
2023-05-14T09:19:45.563Z,98588.23
2023-05-14T09:25:03.745Z,98582.61
2023-05-14T09:30:12.370Z,98584.25
2023-05-14T09:35:21.044Z,98581.96
2023-05-14T09:40:28.907Z,98572.74
2023-05-14T09:45:36.749Z,98582.66
2023-05-14T09:50:45.885Z,98586.02
2023-05-14T09:55:53.231Z,98576.00
2023-05-14T10:01:00.585Z,98565.86
2023-05-14T10:06:11.016Z,98556.27
2023-05-14T10:11:21.635Z,98548.16
2023-05-14T10:16:30.272Z,98536.76
2023-05-14T10:21:38.063Z,98526.27
2023-05-14T10:26:45.540Z,98516.66
2023-05-14T10:31:54.584Z,98507.02
2023-05-14T10:37:02.832Z,98502.51
2023-05-14T10:42:11.022Z,98493.52
2023-05-14T10:47:19.053Z,98488.09
2023-05-14T10:52:26.657Z,98480.35
2023-05-14T10:57:34.151Z,98483.77
2023-05-14T11:02:41.989Z,98477.60
2023-05-14T11:07:49.994Z,98470.73
2023-05-14T11:12:58.184Z,98464.77
2023-05-14T11:18:05.319Z,98469.48
2023-05-14T11:23:12.456Z,98465.90
2023-05-14T11:28:19.598Z,98454.67
2023-05-14T11:33:29.562Z,98449.38
2023-05-14T11:38:37.159Z,98451.20
2023-05-14T11:43:44.711Z,98454.21
2023-05-14T11:48:52.065Z,98447.89
2023-05-14T11:53:59.797Z,98449.93
2023-05-14T11:59:06.984Z,98441.21
2023-05-14T12:04:14.371Z,98431.83
2023-05-14T12:09:22.021Z,98430.13
2023-05-14T12:14:29.168Z,98418.58
2023-05-14T12:19:41.795Z,98414.88
2023-05-14T12:24:56.457Z,98407.51
2023-05-14T12:30:19.976Z,98405.27
2023-05-14T12:35:28.327Z,98393.52
2023-05-14T12:40:35.298Z,98393.48
2023-05-14T12:45:42.344Z,98384.52
2023-05-14T12:50:50.304Z,98376.67
2023-05-14T12:55:57.765Z,98371.92
2023-05-14T13:01:05.259Z,98364.34
2023-05-14T13:06:12.455Z,98353.23
2023-05-14T13:11:19.811Z,98341.34
2023-05-14T13:16:27.019Z,98336.11
2023-05-14T13:21:34.462Z,98326.84
2023-05-14T13:26:41.553Z,98335.48
2023-05-14T13:31:48.864Z,98331.22
2023-05-14T13:36:56.209Z,98329.56
2023-05-14T13:42:03.238Z,98310.39
2023-05-14T13:47:10.490Z,98303.98
2023-05-14T13:52:17.743Z,98302.91
2023-05-14T13:57:24.912Z,98298.85
2023-05-14T14:02:33.565Z,98280.52
2023-05-14T14:07:41.562Z,98263.27
2023-05-14T14:12:48.849Z,98258.04
2023-05-14T14:17:56.362Z,98263.67
2023-05-14T14:23:03.950Z,98255.99
2023-05-14T14:28:11.324Z,98243.41
2023-05-14T14:33:18.837Z,98233.41
2023-05-14T14:38:26.510Z,98235.77
2023-05-14T14:43:33.884Z,98227.88
2023-05-14T14:48:42.084Z,98227.06
2023-05-14T14:53:49.411Z,98220.18
2023-05-14T14:58:56.697Z,98212.24
2023-05-14T15:04:04.477Z,98202.20
2023-05-14T15:09:12.209Z,98183.73
2023-05-14T15:14:19.556Z,98174.70
2023-05-14T15:19:26.788Z,98172.73
2023-05-14T15:24:34.244Z,98174.42
2023-05-14T15:29:41.757Z,98178.50
2023-05-14T15:34:49.057Z,98178.61
2023-05-14T15:39:56.250Z,98180.27
2023-05-14T15:45:03.563Z,98175.10
2023-05-14T15:50:11.575Z,98163.40
2023-05-14T15:55:19.193Z,98159.57
2023-05-14T16:00:27.232Z,98159.89
2023-05-14T16:05:34.590Z,98157.60
2023-05-14T16:10:42.031Z,98139.69
2023-05-14T16:15:49.834Z,98130.08
2023-05-14T16:20:57.051Z,98121.38
2023-05-14T16:26:04.239Z,98127.91
2023-05-14T16:31:11.721Z,98128.80
2023-05-14T16:36:19.161Z,98123.70
2023-05-14T16:41:26.414Z,98121.06
2023-05-14T16:46:34.506Z,98121.47
2023-05-14T16:51:43.529Z,98120.80
2023-05-14T16:56:51.094Z,98117.69
2023-05-14T17:01:58.367Z,98113.24
2023-05-14T17:07:05.632Z,98109.67
2023-05-14T17:12:14.204Z,98107.94
2023-05-14T17:17:21.920Z,98106.48
2023-05-14T17:22:29.230Z,98096.33
2023-05-14T17:27:36.647Z,98092.90
2023-05-14T17:32:44.156Z,98087.90
2023-05-14T17:37:51.882Z,98082.86
2023-05-14T17:42:58.919Z,98078.09
2023-05-14T17:48:06.421Z,98077.84
2023-05-14T17:53:13.660Z,98073.34
2023-05-14T17:58:21.343Z,98066.92
2023-05-14T18:03:29.060Z,98065.94
2023-05-14T18:08:36.497Z,98080.82
2023-05-14T18:13:44.108Z,98098.16
2023-05-14T18:18:51.776Z,98109.98
2023-05-14T18:23:59.265Z,98113.98
2023-05-14T18:29:06.378Z,98117.19
2023-05-14T18:34:13.753Z,98126.92
2023-05-14T18:39:20.987Z,98151.41
2023-05-14T18:44:28.315Z,98148.46
2023-05-14T18:49:36.018Z,98144.48
2023-05-14T18:54:43.300Z,98136.67
2023-05-14T18:59:50.732Z,98140.96
2023-05-14T19:04:57.950Z,98155.79
2023-05-14T19:10:05.479Z,98146.07
2023-05-14T19:15:13.395Z,98143.73
2023-05-14T19:20:20.580Z,98149.55
2023-05-14T19:25:28.280Z,98151.17
2023-05-14T19:30:35.732Z,98148.91
2023-05-14T19:35:43.301Z,98149.38
2023-05-14T19:40:51.526Z,98154.31
2023-05-14T19:46:01.322Z,98155.08
2023-05-14T19:51:08.967Z,98149.28
2023-05-14T19:56:16.047Z,98145.01
2023-05-14T20:01:23.420Z,98147.77
2023-05-14T20:06:30.958Z,98149.13
2023-05-14T20:11:38.287Z,98140.21
2023-05-14T20:16:47.208Z,98124.87
2023-05-14T20:21:54.859Z,98123.42
2023-05-14T20:27:02.445Z,98113.61
2023-05-14T20:32:10.076Z,98108.94
2023-05-14T20:37:18.017Z,98104.67
2023-05-14T20:42:25.199Z,98091.44
2023-05-14T20:47:34.440Z,98074.66
2023-05-14T20:52:41.749Z,98056.57
2023-05-14T20:57:49.969Z,98041.39
2023-05-14T21:02:57.171Z,98024.31
2023-05-14T21:08:04.479Z,98005.29
2023-05-14T21:13:11.888Z,97980.95
2023-05-14T21:18:19.057Z,97953.14
2023-05-14T21:23:26.293Z,97939.94
2023-05-14T21:28:33.445Z,97940.21
2023-05-14T21:33:41.236Z,97933.07
2023-05-14T21:38:48.357Z,97934.47
2023-05-14T21:43:55.666Z,97934.41
2023-05-14T21:49:02.799Z,97931.66
2023-05-14T21:54:10.346Z,97926.98
2023-05-14T21:59:17.803Z,97916.85
2023-05-14T22:04:25.138Z,97908.13
2023-05-14T22:09:32.363Z,97892.73
2023-05-14T22:14:39.555Z,97872.78
2023-05-14T22:19:46.733Z,97870.45
2023-05-14T22:24:53.869Z,97867.36
2023-05-14T22:30:01.074Z,97863.02
2023-05-14T22:35:08.755Z,97849.80
2023-05-14T22:40:16.555Z,97842.09
2023-05-14T22:45:24.074Z,97830.26
2023-05-14T22:50:31.446Z,97839.47
2023-05-14T22:55:38.681Z,97842.58
2023-05-14T23:00:45.821Z,97841.80
2023-05-14T23:05:53.328Z,97832.65
2023-05-14T23:11:00.656Z,97813.23
2023-05-14T23:16:08.206Z,97789.08
2023-05-14T23:21:15.538Z,97775.43
2023-05-14T23:26:23.355Z,97767.10
2023-05-14T23:31:30.436Z,97766.80
2023-05-14T23:36:38.087Z,97756.55
2023-05-14T23:41:45.372Z,97749.17
2023-05-14T23:46:52.437Z,97747.20
2023-05-14T23:51:59.842Z,97750.94
2023-05-14T23:57:07.244Z,97745.86
